createdAt,value
2023-04-12T00:03:50.999Z,9.75
2023-04-12T00:07:55.482Z,9.73
2023-04-12T00:11:58.766Z,9.60
2023-04-12T00:16:01.881Z,9.50
2023-04-12T00:20:12.151Z,9.36
2023-04-12T00:24:15.134Z,9.23
2023-04-12T00:28:18.275Z,9.10
2023-04-12T00:32:21.470Z,9.02
2023-04-12T00:36:26.868Z,9.06
2023-04-12T00:40:29.878Z,9.00
2023-04-12T00:44:33.919Z,8.89
2023-04-12T00:48:38.421Z,8.83
2023-04-12T00:52:42.947Z,8.73
2023-04-12T00:56:47.343Z,8.67
2023-04-12T01:00:53.052Z,8.61
2023-04-12T01:04:58.718Z,8.64
2023-04-12T01:09:16.822Z,8.61
2023-04-12T01:13:30.190Z,8.60
2023-04-12T01:17:40.151Z,8.60
2023-04-12T01:22:03.641Z,8.56
2023-04-12T01:26:23.545Z,8.54
2023-04-12T01:30:30.005Z,8.55
2023-04-12T01:34:36.548Z,8.51
2023-04-12T01:38:40.871Z,8.50
2023-04-12T01:42:43.857Z,8.50
2023-04-12T01:46:48.768Z,8.48
2023-04-12T01:51:02.560Z,8.43
2023-04-12T01:55:07.750Z,8.44
2023-04-12T01:59:14.516Z,8.41
2023-04-12T02:03:21.872Z,8.42
2023-04-12T02:07:25.206Z,8.42
2023-04-12T02:11:28.194Z,8.39
2023-04-12T02:15:31.398Z,8.44
2023-04-12T02:19:37.159Z,8.44
2023-04-12T02:23:41.934Z,8.44
2023-04-12T02:27:45.026Z,8.46
2023-04-12T02:31:48.403Z,8.42
2023-04-12T02:35:53.558Z,8.38
2023-04-12T02:39:59.070Z,8.30
2023-04-12T02:44:02.451Z,8.26
2023-04-12T02:48:07.478Z,8.26
2023-04-12T02:52:11.886Z,8.23
2023-04-12T02:56:25.129Z,8.22
2023-04-12T03:00:37.158Z,8.21
2023-04-12T03:04:40.490Z,8.22
2023-04-12T03:08:50.542Z,8.20
2023-04-12T03:12:53.726Z,8.21
2023-04-12T03:16:57.327Z,8.24
2023-04-12T03:21:02.494Z,8.28
2023-04-12T03:25:10.154Z,8.30
2023-04-12T03:29:18.219Z,8.32
2023-04-12T03:33:25.621Z,8.38
2023-04-12T03:37:33.443Z,8.41
2023-04-12T03:41:38.530Z,8.44
2023-04-12T03:45:41.642Z,8.49
2023-04-12T03:49:51.393Z,8.46
2023-04-12T03:54:02.795Z,8.44
2023-04-12T03:58:13.685Z,8.37
2023-04-12T04:02:19.854Z,8.31
2023-04-12T04:06:25.722Z,8.27
2023-04-12T04:10:32.400Z,8.25
2023-04-12T04:14:36.982Z,8.22
2023-04-12T04:18:42.174Z,8.17
2023-04-12T04:22:48.902Z,8.12
2023-04-12T04:26:54.396Z,8.10
2023-04-12T04:31:06.237Z,8.08
2023-04-12T04:35:12.413Z,8.05
2023-04-12T04:39:27.888Z,8.01
2023-04-12T04:43:34.217Z,7.97
2023-04-12T04:47:40.485Z,7.96
2023-04-12T04:51:43.562Z,7.93
2023-04-12T04:55:48.382Z,7.93
2023-04-12T04:59:52.577Z,7.91
2023-04-12T05:03:57.130Z,7.89
2023-04-12T05:08:03.432Z,7.90
2023-04-12T05:12:08.873Z,7.90
2023-04-12T05:16:13.144Z,7.89
2023-04-12T05:20:18.519Z,7.90
2023-04-12T05:24:21.715Z,7.86
2023-04-12T05:28:25.051Z,7.90
2023-04-12T05:32:28.927Z,7.93
2023-04-12T05:36:34.619Z,7.94
2023-04-12T05:40:39.573Z,7.95
2023-04-12T05:44:47.413Z,7.95
2023-04-12T05:48:52.483Z,7.98
2023-04-12T05:52:57.611Z,8.01
2023-04-12T05:57:05.257Z,8.03
2023-04-12T06:01:11.532Z,8.06
2023-04-12T06:05:17.282Z,8.10
2023-04-12T06:09:22.342Z,8.12
2023-04-12T06:13:25.556Z,8.18
2023-04-12T06:17:28.780Z,8.27
2023-04-12T06:21:33.070Z,8.30
2023-04-12T06:25:38.454Z,8.30
2023-04-12T06:29:41.977Z,8.32
2023-04-12T06:33:45.749Z,8.38
2023-04-12T06:37:48.894Z,8.38
2023-04-12T06:41:53.328Z,8.44
2023-04-12T06:45:58.321Z,8.46
2023-04-12T06:50:01.345Z,8.51
2023-04-12T06:54:04.692Z,8.58
2023-04-12T06:58:09.186Z,8.59
2023-04-12T07:02:12.349Z,8.67
2023-04-12T07:06:25.221Z,8.67
2023-04-12T07:10:28.808Z,8.70
2023-04-12T07:14:33.175Z,8.77
2023-04-12T07:18:36.212Z,8.81
2023-04-12T07:22:39.370Z,8.82
2023-04-12T07:26:42.428Z,8.83
2023-04-12T07:30:46.963Z,8.85
2023-04-12T07:34:50.306Z,8.99
2023-04-12T07:38:56.094Z,9.01
2023-04-12T07:42:59.428Z,9.08
2023-04-12T07:47:03.842Z,9.04
2023-04-12T07:51:07.442Z,8.99
2023-04-12T07:55:11.041Z,9.12
2023-04-12T07:59:14.122Z,9.08
2023-04-12T08:03:20.127Z,9.13
2023-04-12T08:07:24.120Z,9.28
2023-04-12T08:11:27.222Z,9.27
2023-04-12T08:15:30.516Z,9.27
2023-04-12T08:19:35.249Z,9.35
2023-04-12T08:23:38.340Z,9.32
2023-04-12T08:27:43.711Z,9.26
2023-04-12T08:31:47.360Z,9.28
2023-04-12T08:35:52.814Z,9.22
2023-04-12T08:39:56.072Z,9.28
2023-04-12T08:44:00.649Z,9.36
2023-04-12T08:48:04.545Z,9.51
2023-04-12T08:52:10.462Z,9.61
2023-04-12T08:56:14.896Z,9.80
2023-04-12T09:00:19.908Z,9.85
2023-04-12T09:04:23.041Z,9.98
2023-04-12T09:08:27.513Z,10.11
2023-04-12T09:12:30.541Z,10.03
2023-04-12T09:16:38.417Z,10.06
2023-04-12T09:20:41.494Z,10.49
2023-04-12T09:24:50.659Z,10.83
2023-04-12T09:28:53.744Z,11.07
2023-04-12T09:32:56.877Z,11.18
2023-04-12T09:37:00.657Z,11.49
2023-04-12T09:41:21.524Z,11.84
2023-04-12T09:45:28.493Z,12.12
2023-04-12T09:49:38.871Z,11.58
2023-04-12T09:53:47.162Z,11.49
2023-04-12T09:57:52.893Z,11.04
2023-04-12T10:01:56.411Z,10.83
2023-04-12T10:06:00.156Z,10.95
2023-04-12T10:10:05.418Z,10.79
2023-04-12T10:14:11.091Z,11.19
2023-04-12T10:18:15.642Z,10.93
2023-04-12T10:22:19.523Z,11.33
2023-04-12T10:26:22.747Z,11.45
2023-04-12T10:30:29.435Z,11.51
2023-04-12T10:34:32.705Z,12.10
2023-04-12T10:38:47.016Z,12.23
2023-04-12T10:42:50.190Z,12.76
2023-04-12T10:46:54.716Z,13.71
2023-04-12T10:51:23.215Z,13.42
2023-04-12T10:55:32.788Z,13.35
2023-04-12T10:59:57.068Z,13.32
2023-04-12T11:04:25.296Z,14.13
2023-04-12T11:08:49.760Z,13.89
2023-04-12T11:13:09.027Z,13.43
2023-04-12T11:17:23.943Z,13.16
2023-04-12T11:21:29.405Z,12.85
2023-04-12T11:25:32.937Z,12.54
2023-04-12T11:29:36.012Z,12.08
2023-04-12T11:33:41.565Z,12.31
2023-04-12T11:37:46.276Z,12.87
2023-04-12T11:41:50.299Z,13.34
2023-04-12T11:45:58.559Z,13.94
2023-04-12T11:50:01.702Z,13.94
2023-04-12T11:54:06.329Z,14.36
2023-04-12T11:58:09.464Z,13.88
2023-04-12T12:02:22.559Z,13.66
2023-04-12T12:06:28.519Z,13.11
2023-04-12T12:14:42.084Z,12.86
2023-04-12T12:18:46.540Z,12.93
2023-04-12T12:22:50.357Z,13.69
2023-04-12T12:26:56.073Z,14.10
2023-04-12T12:30:59.260Z,14.35
2023-04-12T12:35:02.921Z,15.01
2023-04-12T12:39:10.553Z,14.16
2023-04-12T12:43:20.663Z,13.62
2023-04-12T12:47:23.784Z,12.87
2023-04-12T12:51:28.110Z,12.46
2023-04-12T12:55:32.328Z,12.15
2023-04-12T12:59:36.791Z,12.25
2023-04-12T13:03:39.999Z,12.98
2023-04-12T13:07:44.072Z,14.47
2023-04-12T13:11:47.104Z,15.01
2023-04-12T13:15:52.934Z,13.92
2023-04-12T13:19:56.297Z,12.33
2023-04-12T13:23:59.307Z,10.31
2023-04-12T13:28:02.411Z,9.09
2023-04-12T13:32:07.903Z,9.12
2023-04-12T13:36:11.191Z,9.52
2023-04-12T13:40:15.103Z,10.85
2023-04-12T13:44:18.246Z,10.85
2023-04-12T13:48:23.405Z,11.01
2023-04-12T13:52:26.487Z,10.76
2023-04-12T13:56:31.012Z,11.05
2023-04-12T14:00:34.203Z,11.80
2023-04-12T14:04:51.857Z,14.42
2023-04-12T14:08:54.955Z,14.11
2023-04-12T14:12:58.075Z,12.91
2023-04-12T14:17:02.162Z,12.98
2023-04-12T14:21:07.428Z,13.81
2023-04-12T14:25:12.094Z,12.76
2023-04-12T14:29:15.548Z,11.08
2023-04-12T14:33:19.141Z,11.60
2023-04-12T14:37:23.641Z,11.13
2023-04-12T14:41:27.179Z,12.05
2023-04-12T14:45:30.277Z,10.49
2023-04-12T14:49:33.688Z,9.92
2023-04-12T14:53:38.208Z,10.82
2023-04-12T14:57:41.445Z,13.21
2023-04-12T15:01:44.944Z,14.43
2023-04-12T15:05:48.348Z,14.57
2023-04-12T15:09:52.770Z,14.53
2023-04-12T15:13:56.465Z,14.10
2023-04-12T15:17:59.839Z,13.97
2023-04-12T15:22:03.593Z,13.54
2023-04-12T15:26:09.149Z,12.74
2023-04-12T15:30:15.347Z,11.39
2023-04-12T15:34:18.619Z,10.94
2023-04-12T15:38:23.687Z,10.78
2023-04-12T15:42:28.419Z,10.74
2023-04-12T15:46:31.464Z,10.68
2023-04-12T15:50:34.487Z,10.53
2023-04-12T15:54:43.575Z,10.58
2023-04-12T15:58:48.536Z,11.36
2023-04-12T16:02:54.952Z,13.29
2023-04-12T16:07:02.098Z,13.59
2023-04-12T16:11:06.229Z,13.51
2023-04-12T16:15:11.654Z,12.54
2023-04-12T16:19:16.157Z,12.73
2023-04-12T16:23:19.411Z,13.12
2023-04-12T16:27:23.701Z,13.31
2023-04-12T16:31:28.189Z,13.79
2023-04-12T16:35:32.023Z,13.14
2023-04-12T16:39:35.222Z,12.74
2023-04-12T16:43:38.335Z,13.02
2023-04-12T16:47:42.787Z,13.46
2023-04-12T16:51:46.195Z,13.08
2023-04-12T16:55:49.331Z,13.21
2023-04-12T16:59:52.391Z,13.07
2023-04-12T17:03:57.590Z,12.82
2023-04-12T17:08:00.996Z,13.62
2023-04-12T17:12:04.203Z,13.25
2023-04-12T17:16:09.073Z,13.35
2023-04-12T17:20:14.114Z,12.27
2023-04-12T17:24:17.537Z,11.33
2023-04-12T17:28:20.607Z,10.78
2023-04-12T17:32:26.080Z,10.45
2023-04-12T17:36:31.710Z,10.30
2023-04-12T17:40:35.495Z,10.18
2023-04-12T17:44:38.601Z,10.03
2023-04-12T17:48:41.655Z,10.01
2023-04-12T17:52:46.127Z,10.17
2023-04-12T17:56:49.805Z,9.95
2023-04-12T18:00:52.892Z,9.86
2023-04-12T18:04:56.034Z,9.86
2023-04-12T18:09:01.482Z,9.85
2023-04-12T18:13:04.723Z,9.84
2023-04-12T18:17:07.773Z,9.83
2023-04-12T18:21:10.872Z,9.71
2023-04-12T18:25:16.782Z,9.64
2023-04-12T18:29:19.840Z,9.49
2023-04-12T18:33:24.083Z,9.42
2023-04-12T18:37:28.431Z,9.43
2023-04-12T18:41:33.404Z,9.38
2023-04-12T18:45:40.129Z,9.38
2023-04-12T18:49:43.215Z,9.20
2023-04-12T18:53:46.402Z,9.11
2023-04-12T18:57:50.771Z,8.95
2023-04-12T19:01:55.328Z,8.67
2023-04-12T19:05:58.981Z,8.41
2023-04-12T19:10:01.978Z,8.22
2023-04-12T19:14:07.310Z,8.01
2023-04-12T19:18:10.465Z,7.86
2023-04-12T19:22:13.592Z,7.78
2023-04-12T19:26:17.111Z,7.79
2023-04-12T19:30:21.824Z,7.79
2023-04-12T19:34:25.075Z,7.86
2023-04-12T19:38:29.096Z,6.87
2023-04-12T19:42:32.277Z,6.52
2023-04-12T19:46:38.962Z,6.49
2023-04-12T19:50:42.928Z,6.41
2023-04-12T19:54:46.801Z,6.34
2023-04-12T19:58:49.917Z,6.19
2023-04-12T20:02:55.433Z,6.04
2023-04-12T20:06:58.509Z,6.07
2023-04-12T20:11:02.801Z,6.00
2023-04-12T20:15:06.961Z,5.93
2023-04-12T20:19:11.436Z,5.86
2023-04-12T20:23:14.484Z,5.87
2023-04-12T20:27:18.463Z,5.86
2023-04-12T20:31:21.505Z,5.99
2023-04-12T20:35:26.002Z,5.99
2023-04-12T20:39:29.626Z,5.96
2023-04-12T20:43:34.847Z,5.92
2023-04-12T20:47:38.189Z,5.80
2023-04-12T20:51:46.733Z,5.80
2023-04-12T20:55:49.838Z,5.75
2023-04-12T20:59:52.930Z,5.76
2023-04-12T21:03:58.700Z,5.81
2023-04-12T21:08:03.304Z,5.79
2023-04-12T21:12:08.409Z,5.75
2023-04-12T21:16:16.131Z,5.82
2023-04-12T21:20:19.662Z,6.00
2023-04-12T21:24:24.134Z,6.15
2023-04-12T21:28:29.685Z,6.29
2023-04-12T21:32:34.232Z,6.36
2023-04-12T21:36:37.297Z,6.35
2023-04-12T21:40:41.771Z,6.20
2023-04-12T21:44:44.837Z,6.22
2023-04-12T21:48:47.866Z,6.21
2023-04-12T21:52:50.866Z,6.24
2023-04-12T21:56:56.184Z,6.13
2023-04-12T22:00:59.374Z,6.09
2023-04-12T22:05:02.553Z,6.04
2023-04-12T22:09:05.695Z,6.01
2023-04-12T22:13:10.826Z,6.10
2023-04-12T22:17:14.510Z,6.15
2023-04-12T22:21:17.727Z,6.29
2023-04-12T22:25:22.011Z,6.37
2023-04-12T22:29:26.774Z,6.45
2023-04-12T22:33:30.064Z,6.60
2023-04-12T22:37:33.563Z,6.59
2023-04-12T22:41:37.898Z,6.74
2023-04-12T22:45:42.316Z,6.81
2023-04-12T22:49:46.623Z,6.95
2023-04-12T22:53:50.344Z,6.99
2023-04-12T22:57:53.613Z,7.13
2023-04-12T23:01:58.045Z,7.29
2023-04-12T23:06:01.122Z,7.34
2023-04-12T23:10:04.530Z,7.42
2023-04-12T23:14:09.265Z,7.50
2023-04-12T23:18:13.790Z,7.76
2023-04-12T23:22:44.362Z,7.67
2023-04-12T23:26:58.925Z,7.76
2023-04-12T23:31:02.777Z,7.76
2023-04-12T23:35:08.328Z,7.81
2023-04-12T23:39:12.030Z,7.95
2023-04-12T23:43:14.962Z,8.11
2023-04-12T23:47:17.988Z,8.19
2023-04-12T23:51:22.776Z,7.92
2023-04-12T23:55:26.207Z,7.84
2023-04-12T23:59:29.227Z,7.64
